Time;durP1;ratioP1;P1;durP2;ratioP2;P2;SDS_P1;SDS_P2;PMS_P1;PMS_P2;Temp;Humidity;BMP_temperature;BMP_pressure;BME280_temperature;BME280_humidity;BME280_pressure;Samples;Min_cycle;Max_cycle;Signal;HPM_P1;HPM_P2
2021/05/08 00:01:03;;;;;;;;;;;;;;;;;;4327812;33;19952;-84
2021/05/08 00:03:33;;;;;;;;;;;;;;;;;;4329116;33;19974;-83
2021/05/08 00:06:07;;;;;;;;;;;;;;;;;;4329265;33;19956;-83
2021/05/08 00:08:37;;;;;;;;;;;;;;;;;;4328336;33;19962;-83
2021/05/08 00:11:07;;;;;;;;;;;;;;;;;;4329284;33;19975;-84
2021/05/08 00:13:38;;;;;;;;;;;;;;;;;;4323775;33;20071;-84
2021/05/08 00:16:08;;;;;;;;;;;;;;;;;;4329414;33;19966;-82
2021/05/08 00:18:40;;;;;;;;;;;;;;;;;;4329188;33;20077;-83
2021/05/08 00:21:10;;;;;;;;;;;;;;;;;;4329518;33;20051;-83
2021/05/08 00:23:40;;;;;;;;;;;;;;;;;;4334486;33;19959;-83
2021/05/08 00:26:10;;;;;;;;;;;;;;;;;;4332975;33;20030;-83
2021/05/08 00:28:38;;;;;;;;;;;;;;;;;;4328014;33;19964;-83
2021/05/08 00:31:08;;;;;;;;;;;;;;;;;;4314894;33;19971;-83
2021/05/08 00:33:36;;;;;;;;;;;;;;;;;;4338083;33;19994;-83
2021/05/08 00:36:07;;;;;;;;;;;;;;;;;;4340344;33;19951;-83
2021/05/08 00:38:35;;;;;;;;;;;;;;;;;;4332389;33;19956;-83
2021/05/08 00:41:05;;;;;;;;;;;;;;;;;;4327376;33;20015;-83
2021/05/08 00:43:39;;;;;;;;;;;;;;;;;;4330308;33;20445;-84
2021/05/08 00:46:09;;;;;;;;;;;;;;;;;;4332220;33;19995;-83
2021/05/08 00:48:39;;;;;;;;;;;;;;;;;;4308642;33;20655;-84
2021/05/08 00:51:10;;;;;;;;;;;;;;;;;;4340081;33;19959;-83
2021/05/08 00:53:40;;;;;;;;;;;;;;;;;;4314590;33;19999;-84
2021/05/08 00:56:11;;;;;;;;;;;;;;;;;;4323186;33;20456;-84
2021/05/08 00:58:41;;;;;;;;;;;;;;;;;;4332292;33;19974;-83
2021/05/08 01:01:12;;;;;;;;;;;;;;;;;;4332996;33;19971;-84
2021/05/08 01:03:45;;;;;;;;;;;;;;;;;;4315621;33;20280;-84
2021/05/08 01:06:15;;;;;;;;;;;;;;;;;;4336247;33;20402;-83
2021/05/08 01:08:45;;;;;;;;;;;;;;;;;;4334622;33;19987;-83
2021/05/08 01:11:15;;;;;;;;;;;;;;;;;;4328626;33;20027;-83
2021/05/08 01:13:45;;;;;;;;;;;;;;;;;;4330708;33;20341;-83
2021/05/08 01:16:15;;;;;;;;;;;;;;;;;;4338687;33;20366;-83
2021/05/08 01:18:51;;;;;;;;;;;;;;;;;;4334670;33;19976;-83
2021/05/08 01:21:23;;;;;;;;;;;;;;;;;;4330384;33;20014;-83
2021/05/08 01:23:54;;;;;;;;;;;;;;;;;;4334288;33;20070;-84
2021/05/08 01:26:23;;;;;;;;;;;;;;;;;;4337146;33;19994;-83
2021/05/08 01:28:54;;;;;;;;;;;;;;;;;;4332539;33;19955;-83
2021/05/08 01:31:25;;;;;;;;;;;;;;;;;;4331193;33;20025;-84
2021/05/08 01:33:55;;;;;;;;;;;;;;;;;;4318094;33;20004;-83
2021/05/08 01:36:25;;;;;;;;;;;;;;;;;;4336359;33;20037;-83
2021/05/08 01:38:58;;;;;;;;;;;;;;;;;;4336137;33;20151;-83
2021/05/08 01:41:28;;;;;;;;;;;;;;;;;;4330687;33;19956;-83
2021/05/08 01:43:59;;;;;;;;;;;;;;;;;;4330959;33;20046;-84
2021/05/08 01:46:30;;;;;;;;;;;;;;;;;;4321552;33;20081;-84
2021/05/08 01:49:03;;;;;;;;;;;;;;;;;;4328699;33;20768;-83
2021/05/08 01:51:33;;;;;;;;;;;;;;;;;;4331712;33;20039;-84
2021/05/08 01:54:03;;;;;;;;;;;;;;;;;;4313801;33;20007;-85
2021/05/08 01:56:33;;;;;;;;;;;;;;;;;;4315023;33;19959;-84
2021/05/08 01:59:04;;;;;;;;;;;;;;;;;;4325806;33;20311;-84
2021/05/08 02:01:34;;;;;;;;;;;;;;;;;;4328086;33;20015;-84
2021/05/08 02:04:09;;;;;;;;;;;;;;;;;;4332754;33;20307;-84
2021/05/08 02:06:41;;;;;;;;;;;;;;;;;;4334633;33;19959;-83
2021/05/08 02:09:13;;;;;;;;;;;;;;;;;;4329709;33;19960;-83
2021/05/08 02:11:41;;;;;;;;;;;;;;;;;;4328585;33;19999;-84
2021/05/08 02:14:12;;;;;;;;;;;;;;;;;;4337083;33;19960;-83
2021/05/08 02:16:42;;;;;;;;;;;;;;;;;;4334618;33;20008;-84
2021/05/08 02:19:12;;;;;;;;;;;;;;;;;;4331599;33;21647;-83
2021/05/08 02:21:45;;;;;;;;;;;;;;;;;;4339429;33;19990;-83
2021/05/08 02:24:16;;;;;;;;;;;;;;;;;;4334010;33;19952;-84
2021/05/08 02:26:46;;;;;;;;;;;;;;;;;;4333153;33;19998;-84
2021/05/08 02:29:17;;;;;;;;;;;;;;;;;;4330364;33;19963;-84
2021/05/08 02:31:46;;;;;;;;;;;;;;;;;;4317642;33;20082;-84
2021/05/08 02:34:17;;;;;;;;;;;;;;;;;;4334598;33;20024;-84
2021/05/08 02:36:51;;;;;;;;;;;;;;;;;;4321255;33;20036;-83
2021/05/08 02:39:19;;;;;;;;;;;;;;;;;;4341775;33;20393;-83
2021/05/08 02:41:49;;;;;;;;;;;;;;;;;;4343088;33;19994;-83
2021/05/08 02:44:20;;;;;;;;;;;;;;;;;;4337703;33;19956;-83
2021/05/08 02:46:53;;;;;;;;;;;;;;;;;;4337274;33;19980;-83
2021/05/08 02:49:23;;;;;;;;;;;;;;;;;;4325467;33;20737;-84
2021/05/08 02:51:54;;;;;;;;;;;;;;;;;;4340466;33;20002;-84
2021/05/08 02:54:22;;;;;;;;;;;;;;;;;;4338537;33;19944;-83
2021/05/08 02:56:52;;;;;;;;;;;;;;;;;;4341358;33;20298;-84
2021/05/08 02:59:25;;;;;;;;;;;;;;;;;;4334566;33;20003;-84
2021/05/08 03:01:56;;;;;;;;;;;;;;;;;;4341357;33;19956;-84
2021/05/08 03:04:29;;;;;;;;;;;;;;;;;;4336548;33;20306;-84
2021/05/08 03:06:58;;;;;;;;;;;;;;;;;;4338995;33;20643;-84
2021/05/08 03:09:29;;;;;;;;;;;;;;;;;;4338735;33;19963;-84
2021/05/08 03:11:59;;;;;;;;;;;;;;;;;;4337421;27;20022;-96
2021/05/08 03:14:35;;;;;;;;;;;;;;;;;;4301149;33;20409;-96
2021/05/08 03:17:10;;;;;;;;;;;;;;;;;;4298939;33;20018;-95
2021/05/08 03:19:40;;;;;;;;;;;;;;;;;;4307839;33;19964;-94
2021/05/08 03:22:13;;;;;;;;;;;;;;;;;;4301378;33;19952;-94
2021/05/08 03:24:42;;;;;;;;;;;;;;;;;;4308355;33;20014;-95
2021/05/08 03:27:10;;;;;;;;;;;;;;;;;;4318909;33;20310;-95
2021/05/08 03:29:42;;;;;;;;;;;;;;;;;;4305979;33;19964;-95
2021/05/08 03:32:10;;;;;;;;;;;;;;;;;;4294177;33;19989;-95
2021/05/08 03:34:46;;;;;;;;;;;;;;;;;;4305776;33;19959;-96
2021/05/08 03:37:16;;;;;;;;;;;;;;;;;;4305812;33;19953;-96
2021/05/08 03:39:44;;;;;;;;;;;;;;;;;;4306097;33;19960;-95
2021/05/08 03:42:21;;;;;;;;;;;;;;;;;;4305652;33;19953;-95
2021/05/08 03:44:49;;;;;;;;;;;;;;;;;;4304001;33;19963;-95
2021/05/08 03:47:22;;;;;;;;;;;;;;;;;;4303039;33;19992;-95
2021/05/08 03:49:56;;;;;;;;;;;;;;;;;;4303257;33;19960;-96
2021/05/08 03:52:27;;;;;;;;;;;;;;;;;;4302459;33;20065;-95
2021/05/08 03:55:04;;;;;;;;;;;;;;;;;;4302242;33;19949;-95
2021/05/08 03:57:44;;;;;;;;;;;;;;;;;;4302845;33;19976;-96
2021/05/08 04:00:17;;;;;;;;;;;;;;;;;;4302928;33;20306;-95
2021/05/08 04:02:51;;;;;;;;;;;;;;;;;;4303042;33;19988;-95
2021/05/08 04:05:19;;;;;;;;;;;;;;;;;;4303148;33;20026;-95
2021/05/08 04:07:55;;;;;;;;;;;;;;;;;;4292001;33;20526;-94
2021/05/08 04:10:28;;;;;;;;;;;;;;;;;;4306229;33;19956;-93
2021/05/08 04:12:56;;;;;;;;;;;;;;;;;;4325004;33;20357;-96
2021/05/08 04:15:24;;;;;;;;;;;;;;;;;;4303163;33;19972;-94
2021/05/08 04:17:59;;;;;;;;;;;;;;;;;;4311971;33;19963;-94
2021/05/08 04:20:26;;;;;;;;;;;;;;;;;;4314387;33;20040;-96
2021/05/08 04:22:54;;;;;;;;;;;;;;;;;;4304883;33;20306;-95
2021/05/08 04:25:26;;;;;;;;;;;;;;;;;;4314946;33;19956;-96
2021/05/08 04:27:54;;;;;;;;;;;;;;;;;;4298365;33;19972;-95
2021/05/08 04:30:26;;;;;;;;;;;;;;;;;;4305793;33;20003;-95
2021/05/08 04:33:17;;;;;;;;;;;;;;;;;;4303620;33;20340;-95
2021/05/08 04:35:45;;;;;;;;;;;;;;;;;;4306134;33;20121;-94
2021/05/08 04:38:15;;;;;;;;;;;;;;;;;;4304661;33;20031;-96
2021/05/08 04:40:47;;;;;;;;;;;;;;;;;;4305679;33;20034;-94
2021/05/08 04:43:16;;;;;;;;;;;;;;;;;;4300548;33;20440;-95
2021/05/08 04:45:49;;;;;;;;;;;;;;;;;;4301925;33;20349;-95
2021/05/08 04:48:17;;;;;;;;;;;;;;;;;;4305527;33;20010;-95
2021/05/08 04:50:49;;;;;;;;;;;;;;;;;;4298349;33;19956;-95
2021/05/08 04:53:22;;;;;;;;;;;;;;;;;;4314432;33;20003;-96
2021/05/08 04:55:55;;;;;;;;;;;;;;;;;;4313897;33;20034;-96
2021/05/08 04:58:25;;;;;;;;;;;;;;;;;;4314203;33;19963;-96
2021/05/08 05:00:57;;;;;;;;;;;;;;;;;;4303228;33;20003;-96
2021/05/08 05:03:43;;;;;;;;;;;;;;;;;;4306504;33;19961;-95
2021/05/08 05:06:13;;;;;;;;;;;;;;;;;;4309491;33;20041;-95
2021/05/08 05:08:41;;;;;;;;;;;;;;;;;;4314746;33;20071;-96
2021/05/08 05:11:19;;;;;;;;;;;;;;;;;;4300522;33;19961;-94
2021/05/08 05:13:50;;;;;;;;;;;;;;;;;;4303041;33;20004;-96
2021/05/08 05:16:17;;;;;;;;;;;;;;;;;;4307534;33;20376;-96
2021/05/08 05:18:51;;;;;;;;;;;;;;;;;;4311210;33;20003;-94
2021/05/08 05:21:24;;;;;;;;;;;;;;;;;;4289271;33;20028;-96
2021/05/08 05:23:55;;;;;;;;;;;;;;;;;;4300734;33;19964;-96
2021/05/08 05:26:28;;;;;;;;;;;;;;;;;;4299889;33;20089;-96
2021/05/08 05:29:01;;;;;;;;;;;;;;;;;;4318803;33;20010;-95
2021/05/08 05:31:28;;;;;;;;;;;;;;;;;;4297906;33;20004;-96
2021/05/08 05:33:56;;;;;;;;;;;;;;;;;;4311874;33;19956;-95
2021/05/08 05:36:32;;;;;;;;;;;;;;;;;;4310448;33;19986;-95
2021/05/08 05:39:07;;;;;;;;;;;;;;;;;;4300177;33;20038;-95
2021/05/08 05:41:38;;;;;;;;;;;;;;;;;;4311750;33;19960;-94
2021/05/08 05:44:09;;;;;;;;;;;;;;;;;;4298252;33;19952;-96
2021/05/08 05:46:39;;;;;;;;;;;;;;;;;;4309799;33;20395;-96
2021/05/08 05:49:10;;;;;;;;;;;;;;;;;;4307049;33;20441;-96
2021/05/08 05:51:40;;;;;;;;;;;;;;;;;;4293363;33;20031;-95
2021/05/08 05:54:10;;;;;;;;;;;;;;;;;;4297868;33;20001;-95
2021/05/08 05:56:41;;;;;;;;;;;;;;;;;;4297866;33;20397;-94
2021/05/08 05:59:22;;;;;;;;;;;;;;;;;;4315727;33;20046;-96
2021/05/08 06:01:53;;;;;;;;;;;;;;;;;;4293821;33;19991;-95
2021/05/08 06:04:23;;;;;;;;;;;;;;;;;;4309641;33;20039;-95
2021/05/08 06:06:56;;;;;;;;;;;;;;;;;;4308339;33;19956;-95
2021/05/08 06:09:27;;;;;;;;;;;;;;;;;;4304057;33;19948;-93
2021/05/08 06:12:00;;;;;;;;;;;;;;;;;;4306171;33;19967;-96
2021/05/08 06:14:34;;;;;;;;;;;;;;;;;;4301085;33;20003;-95
2021/05/08 06:17:05;;;;;;;;;;;;;;;;;;4308274;33;19988;-95
2021/05/08 06:19:38;;;;;;;;;;;;;;;;;;4296549;33;19945;-95
2021/05/08 06:22:10;;;;;;;;;;;;;;;;;;4289845;33;19980;-95
2021/05/08 06:24:38;;;;;;;;;;;;;;;;;;4312324;33;20358;-96
2021/05/08 06:27:09;;;;;;;;;;;;;;;;;;4302486;33;19960;-96
2021/05/08 06:29:37;;;;;;;;;;;;;;;;;;4298676;33;19964;-95
2021/05/08 06:32:12;;;;;;;;;;;;;;;;;;4299753;33;20568;-96
2021/05/08 06:34:41;;;;;;;;;;;;;;;;;;4311424;33;20405;-96
2021/05/08 06:37:09;;;;;;;;;;;;;;;;;;4310568;33;20035;-96
2021/05/08 06:39:37;;;;;;;;;;;;;;;;;;4299790;33;19975;-96
2021/05/08 06:42:14;;;;;;;;;;;;;;;;;;4301486;33;19952;-96
2021/05/08 06:44:45;;;;;;;;;;;;;;;;;;4299713;33;20436;-96
2021/05/08 06:47:29;;;;;;;;;;;;;;;;;;4300695;33;19968;-95
2021/05/08 06:49:58;;;;;;;;;;;;;;;;;;4296714;33;20031;-96
2021/05/08 06:52:30;;;;;;;;;;;;;;;;;;4299686;33;20065;-96
2021/05/08 06:55:03;;;;;;;;;;;;;;;;;;4300358;33;19948;-96
2021/05/08 06:57:33;;;;;;;;;;;;;;;;;;4303241;33;19976;-96
2021/05/08 07:00:08;;;;;;;;;;;;;;;;;;4301576;33;19962;-96
2021/05/08 07:02:44;;;;;;;;;;;;;;;;;;4315095;33;20210;-96
2021/05/08 07:05:28;;;;;;;;;;;;;;;;;;4296323;33;20375;-96
2021/05/08 07:08:08;;;;;;;;;;;;;;;;;;4303932;33;20008;-96
2021/05/08 07:10:42;;;;;;;;;;;;;;;;;;4303605;33;20340;-96
2021/05/08 07:13:15;;;;;;;;;;;;;;;;;;4301801;33;19957;-95
2021/05/08 07:16:01;;;;;;;;;;;;;;;;;;4312350;33;20025;-96
2021/05/08 07:18:34;;;;;;;;;;;;;;;;;;4297325;33;19975;-96
2021/05/08 07:21:08;;;;;;;;;;;;;;;;;;4311377;33;19992;-95
2021/05/08 07:23:42;;;;;;;;;;;;;;;;;;4314222;33;19967;-96
2021/05/08 07:26:20;;;;;;;;;;;;;;;;;;4304419;33;20394;-96
2021/05/08 07:28:51;;;;;;;;;;;;;;;;;;4291017;33;20440;-95
2021/05/08 07:31:22;;;;;;;;;;;;;;;;;;4299072;33;20071;-95
2021/05/08 07:33:52;;;;;;;;;;;;;;;;;;4305859;33;20010;-95
2021/05/08 07:36:46;;;;;;;;;;;;;;;;;;4313560;33;19975;-94
2021/05/08 07:39:17;;;;;;;;;;;;;;;;;;4313306;33;19949;-94
2021/05/08 07:41:49;;;;;;;;;;;;;;;;;;4301029;33;20000;-96
2021/05/08 07:44:22;;;;;;;;;;;;;;;;;;4303272;33;19970;-95
2021/05/08 07:46:52;;;;;;;;;;;;;;;;;;4312075;33;20004;-95
2021/05/08 07:49:26;;;;;;;;;;;;;;;;;;4287439;33;19961;-95
2021/05/08 07:51:54;;;;;;;;;;;;;;;;;;4297427;33;19994;-95
2021/05/08 07:54:28;;;;;;;;;;;;;;;;;;4288107;33;20011;-96
2021/05/08 07:56:55;;;;;;;;;;;;;;;;;;4311533;33;20004;-96
2021/05/08 07:59:26;;;;;;;;;;;;;;;;;;4300423;33;19952;-95
2021/05/08 08:01:56;;;;;;;;;;;;;;;;;;4301670;33;20346;-94
2021/05/08 08:04:24;;;;;;;;;;;;;;;;;;4299904;33;19956;-93
2021/05/08 08:06:52;;;;;;;;;;;;;;;;;;4297739;33;20062;-94
2021/05/08 08:09:25;;;;;;;;;;;;;;;;;;4310414;33;20379;-95
2021/05/08 08:11:59;;;;;;;;;;;;;;;;;;4303762;33;20286;-93
2021/05/08 08:14:26;;;;;;;;;;;;;;;;;;4307076;33;19992;-96
2021/05/08 08:17:04;;;;;;;;;;;;;;;;;;4312596;33;19999;-96
2021/05/08 08:19:37;;;;;;;;;;;;;;;;;;4302071;33;19995;-95
2021/05/08 08:22:06;;;;;;;;;;;;;;;;;;4315400;33;21701;-96
2021/05/08 08:24:37;;;;;;;;;;;;;;;;;;4302593;33;20354;-96
2021/05/08 08:27:07;;;;;;;;;;;;;;;;;;4311149;33;20024;-96
2021/05/08 08:29:36;;;;;;;;;;;;;;;;;;4307251;33;20415;-95
2021/05/08 08:32:09;;;;;;;;;;;;;;;;;;4289320;33;19963;-96
2021/05/08 08:34:43;;;;;;;;;;;;;;;;;;4300114;33;19952;-95
2021/05/08 08:37:18;;;;;;;;;;;;;;;;;;4313584;33;19970;-96
2021/05/08 08:39:59;;;;;;;;;;;;;;;;;;4306747;33;19963;-95
2021/05/08 08:42:32;;;;;;;;;;;;;;;;;;4315779;33;19971;-96
2021/05/08 08:45:03;;;;;;;;;;;;;;;;;;4315410;33;20314;-95
2021/05/08 08:47:39;;;;;;;;;;;;;;;;;;4302836;33;19967;-95
2021/05/08 08:50:11;;;;;;;;;;;;;;;;;;4291088;33;19992;-96
2021/05/08 08:52:39;;;;;;;;;;;;;;;;;;4291038;33;20382;-93
2021/05/08 08:55:10;;;;;;;;;;;;;;;;;;4307837;33;19975;-93
2021/05/08 08:57:47;;;;;;;;;;;;;;;;;;4292553;33;20008;-93
2021/05/08 09:00:25;;;;;;;;;;;;;;;;;;4302070;33;20014;-94
2021/05/08 09:02:56;;;;;;;;;;;;;;;;;;4302888;33;20030;-92
2021/05/08 09:05:31;;;;;;;;;;;;;;;;;;4303044;33;19957;-95
2021/05/08 09:08:07;;;;;;;;;;;;;;;;;;4299915;33;20407;-94
2021/05/08 09:10:42;;;;;;;;;;;;;;;;;;4294970;33;20008;-95
2021/05/08 09:13:11;;;;;;;;;;;;;;;;;;4297863;33;20372;-95
2021/05/08 09:15:44;;;;;;;;;;;;;;;;;;4310144;33;19970;-93
2021/05/08 09:18:15;;;;;;;;;;;;;;;;;;4292703;33;20342;-94
2021/05/08 09:20:49;;;;;;;;;;;;;;;;;;4310206;33;20391;-94
2021/05/08 09:23:21;;;;;;;;;;;;;;;;;;4313670;33;19995;-96
2021/05/08 09:25:48;;;;;;;;;;;;;;;;;;4301329;33;19960;-95
2021/05/08 09:28:16;;;;;;;;;;;;;;;;;;4298519;33;20317;-94
2021/05/08 09:30:56;;;;;;;;;;;;;;;;;;4315840;33;20334;-94
2021/05/08 09:33:25;;;;;;;;;;;;;;;;;;4307056;33;19980;-96
2021/05/08 09:36:01;;;;;;;;;;;;;;;;;;4287444;33;19969;-96
2021/05/08 09:38:34;;;;;;;;;;;;;;;;;;4306895;33;19944;-95
2021/05/08 09:41:22;;;;;;;;;;;;;;;;;;4311942;33;19996;-96
2021/05/08 09:44:01;;;;;;;;;;;;;;;;;;4302555;33;19968;-96
2021/05/08 09:46:34;;;;;;;;;;;;;;;;;;4316097;33;19956;-96
2021/05/08 09:49:08;;;;;;;;;;;;;;;;;;4299140;33;19949;-96
2021/05/08 09:51:37;;;;;;;;;;;;;;;;;;4320245;28;20709;-85
2021/05/08 09:54:07;;;;;;;;;;;;;;;;;;4307208;33;19956;-84
2021/05/08 09:56:37;;;;;;;;;;;;;;;;;;4301721;33;20030;-84
2021/05/08 09:59:08;;;;;;;;;;;;;;;;;;4294027;33;20326;-84
2021/05/08 10:01:39;;;;;;;;;;;;;;;;;;4311108;33;20370;-84
2021/05/08 10:04:09;;;;;;;;;;;;;;;;;;4303689;33;20426;-85
2021/05/08 10:06:39;;;;;;;;;;;;;;;;;;4301677;33;20055;-86
2021/05/08 10:09:09;;;;;;;;;;;;;;;;;;4306443;33;19952;-85
2021/05/08 10:11:39;;;;;;;;;;;;;;;;;;4299996;33;20068;-87
2021/05/08 10:14:09;;;;;;;;;;;;;;;;;;4303250;33;19970;-87
2021/05/08 10:16:39;;;;;;;;;;;;;;;;;;4309415;33;19975;-85
2021/05/08 10:19:10;;;;;;;;;;;;;;;;;;4305489;33;20027;-85
2021/05/08 10:21:40;;;;;;;;;;;;;;;;;;4302224;33;21119;-84
2021/05/08 10:24:08;;;;;;;;;;;;;;;;;;4303947;33;20000;-85
2021/05/08 10:26:40;;;;;;;;;;;;;;;;;;4306844;33;20023;-84
2021/05/08 10:29:11;;;;;;;;;;;;;;;;;;4311776;33;20320;-84
2021/05/08 10:31:41;;;;;;;;;;;;;;;;;;4311553;33;19975;-84
2021/05/08 10:34:11;;;;;;;;;;;;;;;;;;4311934;33;20402;-85
2021/05/08 10:36:39;;;;;;;;;;;;;;;;;;4309583;33;20094;-85
2021/05/08 10:39:09;;;;;;;;;;;;;;;;;;4307597;33;20035;-85
2021/05/08 10:41:39;;;;;;;;;;;;;;;;;;4300393;33;19984;-84
2021/05/08 10:44:18;;;;;;;;;;;;;;;;;;4302669;33;20019;-85
2021/05/08 10:46:48;;;;;;;;;;;;;;;;;;4302842;33;19956;-85
2021/05/08 10:49:19;;;;;;;;;;;;;;;;;;4307745;33;20501;-84
2021/05/08 10:51:49;;;;;;;;;;;;;;;;;;4316793;33;20444;-84
2021/05/08 10:54:19;;;;;;;;;;;;;;;;;;4306945;33;19952;-84
2021/05/08 10:56:50;;;;;;;;;;;;;;;;;;4303443;33;19969;-85
2021/05/08 10:59:20;;;;;;;;;;;;;;;;;;4303158;33;20356;-84
2021/05/08 11:01:50;;;;;;;;;;;;;;;;;;4304915;33;20495;-84
2021/05/08 11:04:18;;;;;;;;;;;;;;;;;;4313041;33;19956;-84
2021/05/08 11:06:48;;;;;;;;;;;;;;;;;;4314368;33;19991;-84
2021/05/08 11:09:16;;;;;;;;;;;;;;;;;;4315058;33;20003;-84
2021/05/08 11:11:46;;;;;;;;;;;;;;;;;;4315017;33;20080;-85
2021/05/08 11:14:16;;;;;;;;;;;;;;;;;;4309335;33;20075;-85
2021/05/08 11:16:47;;;;;;;;;;;;;;;;;;4304535;33;20007;-85
2021/05/08 11:19:14;;;;;;;;;;;;;;;;;;4303688;33;20684;-85
2021/05/08 11:21:45;;;;;;;;;;;;;;;;;;4295161;33;20408;-85
2021/05/08 11:24:16;;;;;;;;;;;;;;;;;;4311562;33;19960;-84
2021/05/08 11:26:46;;;;;;;;;;;;;;;;;;4311937;33;19972;-85
2021/05/08 11:29:21;;;;;;;;;;;;;;;;;;4301247;33;19964;-83
2021/05/08 11:31:51;;;;;;;;;;;;;;;;;;4296809;33;20046;-84
2021/05/08 11:34:23;;;;;;;;;;;;;;;;;;4311788;33;20058;-83
2021/05/08 11:36:53;;;;;;;;;;;;;;;;;;4306154;33;20014;-83
2021/05/08 11:39:23;;;;;;;;;;;;;;;;;;4308262;33;20016;-83
2021/05/08 11:41:53;;;;;;;;;;;;;;;;;;4311488;33;19967;-83
2021/05/08 11:44:23;;;;;;;;;;;;;;;;;;4312535;33;19952;-83
2021/05/08 11:46:53;;;;;;;;;;;;;;;;;;4312524;33;20005;-84
2021/05/08 11:49:24;;;;;;;;;;;;;;;;;;4311766;33;20378;-84
2021/05/08 11:51:52;;;;;;;;;;;;;;;;;;4316066;33;19992;-83
2021/05/08 11:54:23;;;;;;;;;;;;;;;;;;4312818;33;20394;-84
2021/05/08 11:56:53;;;;;;;;;;;;;;;;;;4313212;33;20071;-84
2021/05/08 11:59:23;;;;;;;;;;;;;;;;;;4299987;33;20115;-83
2021/05/08 12:01:54;;;;;;;;;;;;;;;;;;4313125;33;19976;-83
2021/05/08 12:04:24;;;;;;;;;;;;;;;;;;4311440;33;19953;-83
2021/05/08 12:06:54;;;;;;;;;;;;;;;;;;4299635;33;19956;-83
2021/05/08 12:09:22;;;;;;;;;;;;;;;;;;4310116;33;20004;-84
2021/05/08 12:11:50;;;;;;;;;;;;;;;;;;4327881;33;19998;-84
2021/05/08 12:14:20;;;;;;;;;;;;;;;;;;4300171;33;20433;-83
2021/05/08 12:16:51;;;;;;;;;;;;;;;;;;4312382;33;20367;-82
2021/05/08 12:19:21;;;;;;;;;;;;;;;;;;4311571;33;19948;-83
2021/05/08 12:21:53;;;;;;;;;;;;;;;;;;4313159;33;19957;-83
2021/05/08 12:24:23;;;;;;;;;;;;;;;;;;4309883;33;20008;-84
2021/05/08 12:26:54;;;;;;;;;;;;;;;;;;4312497;33;20327;-83
2021/05/08 12:29:22;;;;;;;;;;;;;;;;;;4311350;33;19949;-82
2021/05/08 12:31:52;;;;;;;;;;;;;;;;;;4305663;33;20221;-85
2021/05/08 12:34:24;;;;;;;;;;;;;;;;;;4304993;33;20019;-85
2021/05/08 12:36:54;;;;;;;;;;;;;;;;;;4300312;33;19960;-85
2021/05/08 12:39:24;;;;;;;;;;;;;;;;;;4308524;33;19964;-84
2021/05/08 12:41:53;;;;;;;;;;;;;;;;;;4310349;33;20035;-85
2021/05/08 12:44:23;;;;;;;;;;;;;;;;;;4290415;33;19991;-86
2021/05/08 12:46:51;;;;;;;;;;;;;;;;;;4308324;33;19949;-86
2021/05/08 12:49:21;;;;;;;;;;;;;;;;;;4311002;33;20023;-85
2021/05/08 12:51:49;;;;;;;;;;;;;;;;;;4327082;33;20052;-85
2021/05/08 12:54:19;;;;;;;;;;;;;;;;;;4311578;33;20054;-86
2021/05/08 12:56:49;;;;;;;;;;;;;;;;;;4306043;33;19967;-85
2021/05/08 12:59:19;;;;;;;;;;;;;;;;;;4310555;33;19980;-85
2021/05/08 13:01:54;;;;;;;;;;;;;;;;;;4315026;33;20066;-85
2021/05/08 13:04:24;;;;;;;;;;;;;;;;;;4306750;33;20027;-85
2021/05/08 13:06:51;;;;;;;;;;;;;;;;;;4284702;33;20485;-85
2021/05/08 13:09:22;;;;;;;;;;;;;;;;;;4307847;33;20050;-85
2021/05/08 13:11:50;;;;;;;;;;;;;;;;;;4305065;33;20014;-85
2021/05/08 13:14:20;;;;;;;;;;;;;;;;;;4304926;33;19987;-86
2021/05/08 13:16:48;;;;;;;;;;;;;;;;;;4310450;33;20376;-86
2021/05/08 13:19:19;;;;;;;;;;;;;;;;;;4311794;33;19979;-85
2021/05/08 13:21:49;;;;;;;;;;;;;;;;;;4306735;33;19964;-85
2021/05/08 13:24:17;;;;;;;;;;;;;;;;;;4307091;33;19995;-85
2021/05/08 13:26:44;;;;;;;;;;;;;;;;;;4318794;33;19983;-85
2021/05/08 13:29:14;;;;;;;;;;;;;;;;;;4307121;33;20332;-85
2021/05/08 13:31:45;;;;;;;;;;;;;;;;;;4297532;33;20361;-85
2021/05/08 13:34:13;;;;;;;;;;;;;;;;;;4297131;33;20123;-86
2021/05/08 13:36:40;;;;;;;;;;;;;;;;;;4303917;33;20039;-85
2021/05/08 13:39:10;;;;;;;;;;;;;;;;;;4302269;33;19970;-86
2021/05/08 13:41:41;;;;;;;;;;;;;;;;;;4300254;33;19955;-85
2021/05/08 13:44:12;;;;;;;;;;;;;;;;;;4298304;33;20059;-86
2021/05/08 13:46:41;;;;;;;;;;;;;;;;;;4308696;33;20365;-85
2021/05/08 13:49:12;;;;;;;;;;;;;;;;;;4291612;33;20055;-86
2021/05/08 13:51:44;;;;;;;;;;;;;;;;;;4291607;33;20927;-85
2021/05/08 13:54:15;;;;;;;;;;;;;;;;;;4302636;33;20039;-86
2021/05/08 13:56:44;;;;;;;;;;;;;;;;;;4281702;33;20071;-86
2021/05/08 13:59:16;;;;;;;;;;;;;;;;;;4291207;33;20054;-86
2021/05/08 14:01:45;;;;;;;;;;;;;;;;;;4283243;33;20090;-86
2021/05/08 14:04:16;;;;;;;;;;;;;;;;;;4278966;33;20034;-87
2021/05/08 14:07:26;;;;;;;;;;;;;;;;;;4266007;33;20018;-86
2021/05/08 14:09:56;;;;;;;;;;;;;;;;;;4267558;33;20032;-85
2021/05/08 14:12:24;;;;;;;;;;;;;;;;;;4276470;33;20252;-86
2021/05/08 14:14:55;;;;;;;;;;;;;;;;;;4289266;33;20407;-86
2021/05/08 14:17:25;;;;;;;;;;;;;;;;;;4294047;33;20047;-85
2021/05/08 14:19:54;;;;;;;;;;;;;;;;;;4296105;33;20035;-85
2021/05/08 14:22:23;;;;;;;;;;;;;;;;;;4283348;33;19970;-86
2021/05/08 14:24:54;;;;;;;;;;;;;;;;;;4292881;33;20027;-85
2021/05/08 14:27:24;;;;;;;;;;;;;;;;;;4297093;33;19960;-85
2021/05/08 14:29:57;;;;;;;;;;;;;;;;;;4297737;33;19975;-85
2021/05/08 14:32:27;;;;;;;;;;;;;;;;;;4295610;33;20035;-86
2021/05/08 14:34:57;;;;;;;;;;;;;;;;;;4293779;33;19987;-86
2021/05/08 14:37:27;;;;;;;;;;;;;;;;;;4294950;33;19967;-86
2021/05/08 14:39:59;;;;;;;;;;;;;;;;;;4297973;33;19971;-85
2021/05/08 14:42:27;;;;;;;;;;;;;;;;;;4304397;33;19964;-86
2021/05/08 14:44:57;;;;;;;;;;;;;;;;;;4294498;33;20030;-85
2021/05/08 14:47:28;;;;;;;;;;;;;;;;;;4289426;33;20008;-85
2021/05/08 14:49:56;;;;;;;;;;;;;;;;;;4284836;33;20028;-86
2021/05/08 14:52:26;;;;;;;;;;;;;;;;;;4290242;33;20011;-86
2021/05/08 14:54:54;;;;;;;;;;;;;;;;;;4292107;33;20038;-85
2021/05/08 14:57:25;;;;;;;;;;;;;;;;;;4297271;33;20040;-86
2021/05/08 14:59:55;;;;;;;;;;;;;;;;;;4294489;33;19959;-87
2021/05/08 15:02:27;;;;;;;;;;;;;;;;;;4297570;33;20328;-85
2021/05/08 15:04:58;;;;;;;;;;;;;;;;;;4298902;33;20000;-86
2021/05/08 15:07:28;;;;;;;;;;;;;;;;;;4306464;33;20291;-86
2021/05/08 15:09:59;;;;;;;;;;;;;;;;;;4300936;33;20003;-85
2021/05/08 15:12:29;;;;;;;;;;;;;;;;;;4299729;33;20550;-86
2021/05/08 15:14:58;;;;;;;;;;;;;;;;;;4295960;33;20327;-85
2021/05/08 15:17:29;;;;;;;;;;;;;;;;;;4314553;33;19964;-85
2021/05/08 15:19:59;;;;;;;;;;;;;;;;;;4311591;33;20000;-85
2021/05/08 15:22:29;;;;;;;;;;;;;;;;;;4301595;33;19975;-86
2021/05/08 15:24:59;;;;;;;;;;;;;;;;;;4303261;33;20012;-85
2021/05/08 15:27:29;;;;;;;;;;;;;;;;;;4302116;33;20470;-86
2021/05/08 15:30:00;;;;;;;;;;;;;;;;;;4311749;33;20294;-85
2021/05/08 15:32:31;;;;;;;;;;;;;;;;;;4318898;33;19960;-85
2021/05/08 15:35:03;;;;;;;;;;;;;;;;;;4319252;33;20003;-85
2021/05/08 15:37:35;;;;;;;;;;;;;;;;;;4304103;33;20011;-84
2021/05/08 15:40:06;;;;;;;;;;;;;;;;;;4302064;33;20043;-85
2021/05/08 15:42:36;;;;;;;;;;;;;;;;;;4310490;33;20359;-85
2021/05/08 15:45:09;;;;;;;;;;;;;;;;;;4310752;33;19953;-86
2021/05/08 15:47:39;;;;;;;;;;;;;;;;;;4304156;33;19969;-86
2021/05/08 15:50:11;;;;;;;;;;;;;;;;;;4308503;33;20146;-85
2021/05/08 15:52:41;;;;;;;;;;;;;;;;;;4297298;33;20035;-86
2021/05/08 15:55:11;;;;;;;;;;;;;;;;;;4307288;33;19957;-86
2021/05/08 15:57:41;;;;;;;;;;;;;;;;;;4303782;33;21394;-86
2021/05/08 16:00:12;;;;;;;;;;;;;;;;;;4295695;33;20022;-85
2021/05/08 16:02:39;;;;;;;;;;;;;;;;;;4304901;33;19992;-85
2021/05/08 16:05:07;;;;;;;;;;;;;;;;;;4295022;33;19964;-85
2021/05/08 16:07:38;;;;;;;;;;;;;;;;;;4311934;33;19968;-85
2021/05/08 16:10:13;;;;;;;;;;;;;;;;;;4311454;33;19995;-85
2021/05/08 16:12:41;;;;;;;;;;;;;;;;;;4308723;33;20452;-84
2021/05/08 16:15:11;;;;;;;;;;;;;;;;;;4308332;33;19945;-85
2021/05/08 16:17:41;;;;;;;;;;;;;;;;;;4304227;33;20292;-85
2021/05/08 16:20:09;;;;;;;;;;;;;;;;;;4304443;33;20026;-85
2021/05/08 16:22:40;;;;;;;;;;;;;;;;;;4307197;33;19964;-85
2021/05/08 16:25:10;;;;;;;;;;;;;;;;;;4308734;33;19964;-86
2021/05/08 16:27:38;;;;;;;;;;;;;;;;;;4312535;33;19960;-85
2021/05/08 16:30:07;;;;;;;;;;;;;;;;;;4294897;33;20011;-86
2021/05/08 16:32:38;;;;;;;;;;;;;;;;;;4307055;33;20339;-85
2021/05/08 16:35:09;;;;;;;;;;;;;;;;;;4307711;33;20296;-84
2021/05/08 16:37:39;;;;;;;;;;;;;;;;;;4314735;33;19968;-84
2021/05/08 16:40:11;;;;;;;;;;;;;;;;;;4311742;33;19979;-84
2021/05/08 16:42:44;;;;;;;;;;;;;;;;;;4311059;33;20000;-85
2021/05/08 16:45:14;;;;;;;;;;;;;;;;;;4304904;33;20263;-84
2021/05/08 16:47:45;;;;;;;;;;;;;;;;;;4301279;33;19975;-85
2021/05/08 16:50:16;;;;;;;;;;;;;;;;;;4305359;33;20357;-86
2021/05/08 16:52:45;;;;;;;;;;;;;;;;;;4296554;33;19960;-85
2021/05/08 16:55:14;;;;;;;;;;;;;;;;;;4310647;33;20460;-85
2021/05/08 16:57:45;;;;;;;;;;;;;;;;;;4316628;33;19961;-85
2021/05/08 17:00:16;;;;;;;;;;;;;;;;;;4304125;33;19982;-85
2021/05/08 17:02:47;;;;;;;;;;;;;;;;;;4306604;33;20346;-84
2021/05/08 17:05:17;;;;;;;;;;;;;;;;;;4305139;33;19952;-84
2021/05/08 17:07:49;;;;;;;;;;;;;;;;;;4295336;33;20504;-85
2021/05/08 17:10:17;;;;;;;;;;;;;;;;;;4300045;33;20047;-84
2021/05/08 17:12:48;;;;;;;;;;;;;;;;;;4306694;33;20008;-84